sensor_id;sensor_type;location;lat;lon;timestamp;temperature;humidity
66710;DHT22;53624;0.000;0.000;2023-07-31T00:00:46;17.40;98.60
66710;DHT22;53624;0.000;0.000;2023-07-31T00:03:14;17.40;99.10
66710;DHT22;53624;0.000;0.000;2023-07-31T00:05:41;17.30;99.10
66710;DHT22;53624;0.000;0.000;2023-07-31T00:08:09;16.90;99.90
66710;DHT22;53624;0.000;0.000;2023-07-31T00:10:36;16.90;99.90
66710;DHT22;53624;0.000;0.000;2023-07-31T00:13:04;17.00;99.90
66710;DHT22;53624;0.000;0.000;2023-07-31T00:15:31;17.00;99.90
66710;DHT22;53624;0.000;0.000;2023-07-31T00:18:00;17.00;99.90
66710;DHT22;53624;0.000;0.000;2023-07-31T00:20:28;16.70;99.90
66710;DHT22;53624;0.000;0.000;2023-07-31T00:22:55;16.80;99.90
66710;DHT22;53624;0.000;0.000;2023-07-31T00:25:23;16.30;99.90
66710;DHT22;53624;0.000;0.000;2023-07-31T00:27:50;16.20;99.90
66710;DHT22;53624;0.000;0.000;2023-07-31T00:30:17;16.10;99.90
66710;DHT22;53624;0.000;0.000;2023-07-31T00:32:45;16.30;99.90
66710;DHT22;53624;0.000;0.000;2023-07-31T00:35:14;16.40;99.90
66710;DHT22;53624;0.000;0.000;2023-07-31T00:37:41;16.80;99.90
66710;DHT22;53624;0.000;0.000;2023-07-31T00:40:09;16.70;99.90
66710;DHT22;53624;0.000;0.000;2023-07-31T00:42:36;16.80;99.90
66710;DHT22;53624;0.000;0.000;2023-07-31T00:45:04;17.00;99.90
66710;DHT22;53624;0.000;0.000;2023-07-31T00:47:32;16.80;99.90
66710;DHT22;53624;0.000;0.000;2023-07-31T00:50:00;16.30;99.90
66710;DHT22;53624;0.000;0.000;2023-07-31T00:52:29;16.20;99.90
66710;DHT22;53624;0.000;0.000;2023-07-31T00:54:56;16.30;99.90
66710;DHT22;53624;0.000;0.000;2023-07-31T00:57:25;16.40;99.90
66710;DHT22;53624;0.000;0.000;2023-07-31T00:59:52;16.70;99.90
66710;DHT22;53624;0.000;0.000;2023-07-31T01:02:20;16.90;99.90
66710;DHT22;53624;0.000;0.000;2023-07-31T01:04:47;16.80;99.90
66710;DHT22;53624;0.000;0.000;2023-07-31T01:07:17;16.20;99.90
66710;DHT22;53624;0.000;0.000;2023-07-31T01:09:49;16.00;99.90
66710;DHT22;53624;0.000;0.000;2023-07-31T01:12:21;16.30;99.90
66710;DHT22;53624;0.000;0.000;2023-07-31T01:14:51;16.10;99.90
66710;DHT22;53624;0.000;0.000;2023-07-31T01:17:18;15.90;99.90
66710;DHT22;53624;0.000;0.000;2023-07-31T01:19:46;16.10;99.90
66710;DHT22;53624;0.000;0.000;2023-07-31T01:22:23;16.20;99.90
66710;DHT22;53624;0.000;0.000;2023-07-31T01:25:00;16.20;99.90
66710;DHT22;53624;0.000;0.000;2023-07-31T01:27:34;16.10;99.90
66710;DHT22;53624;0.000;0.000;2023-07-31T01:30:07;15.60;99.90
66710;DHT22;53624;0.000;0.000;2023-07-31T01:32:37;16.00;99.90
66710;DHT22;53624;0.000;0.000;2023-07-31T01:35:06;16.00;99.90
66710;DHT22;53624;0.000;0.000;2023-07-31T01:37:34;16.20;99.90
66710;DHT22;53624;0.000;0.000;2023-07-31T01:40:02;16.10;99.90
66710;DHT22;53624;0.000;0.000;2023-07-31T01:42:29;15.80;99.90
66710;DHT22;53624;0.000;0.000;2023-07-31T01:44:59;15.90;99.90
66710;DHT22;53624;0.000;0.000;2023-07-31T01:47:26;15.80;99.90
66710;DHT22;53624;0.000;0.000;2023-07-31T01:49:53;15.70;99.90
66710;DHT22;53624;0.000;0.000;2023-07-31T01:52:21;16.00;99.90
66710;DHT22;53624;0.000;0.000;2023-07-31T01:54:48;16.20;99.90
66710;DHT22;53624;0.000;0.000;2023-07-31T01:57:16;16.00;99.90
66710;DHT22;53624;0.000;0.000;2023-07-31T01:59:43;15.70;99.90
66710;DHT22;53624;0.000;0.000;2023-07-31T02:02:12;15.70;99.90
66710;DHT22;53624;0.000;0.000;2023-07-31T02:04:40;15.70;99.90
66710;DHT22;53624;0.000;0.000;2023-07-31T02:07:08;15.80;99.90
66710;DHT22;53624;0.000;0.000;2023-07-31T02:09:35;15.80;99.90
66710;DHT22;53624;0.000;0.000;2023-07-31T02:12:03;15.80;99.90
66710;DHT22;53624;0.000;0.000;2023-07-31T02:14:30;15.90;99.90
66710;DHT22;53624;0.000;0.000;2023-07-31T02:16:58;15.70;99.90
66710;DHT22;53624;0.000;0.000;2023-07-31T02:19:27;15.70;99.90
66710;DHT22;53624;0.000;0.000;2023-07-31T02:21:54;15.70;99.90
66710;DHT22;53624;0.000;0.000;2023-07-31T02:24:22;15.90;99.90
66710;DHT22;53624;0.000;0.000;2023-07-31T02:26:50;15.70;99.90
66710;DHT22;53624;0.000;0.000;2023-07-31T02:29:17;15.80;99.90
66710;DHT22;53624;0.000;0.000;2023-07-31T02:31:45;15.60;99.90
66710;DHT22;53624;0.000;0.000;2023-07-31T02:34:12;15.50;99.90
66710;DHT22;53624;0.000;0.000;2023-07-31T02:36:41;15.30;99.90
66710;DHT22;53624;0.000;0.000;2023-07-31T02:39:09;15.30;99.90
66710;DHT22;53624;0.000;0.000;2023-07-31T02:41:36;15.20;99.90
66710;DHT22;53624;0.000;0.000;2023-07-31T02:44:04;15.20;99.90
66710;DHT22;53624;0.000;0.000;2023-07-31T02:46:31;15.40;99.90
66710;DHT22;53624;0.000;0.000;2023-07-31T02:48:59;15.30;99.90
66710;DHT22;53624;0.000;0.000;2023-07-31T02:51:26;15.50;99.90
66710;DHT22;53624;0.000;0.000;2023-07-31T02:53:55;15.60;99.90
66710;DHT22;53624;0.000;0.000;2023-07-31T02:56:23;15.70;99.90
66710;DHT22;53624;0.000;0.000;2023-07-31T02:58:50;15.50;99.90
66710;DHT22;53624;0.000;0.000;2023-07-31T03:01:17;15.60;99.90
66710;DHT22;53624;0.000;0.000;2023-07-31T03:03:45;15.50;99.90
66710;DHT22;53624;0.000;0.000;2023-07-31T03:06:13;15.60;99.90
66710;DHT22;53624;0.000;0.000;2023-07-31T03:08:40;15.60;99.90
66710;DHT22;53624;0.000;0.000;2023-07-31T03:11:09;15.40;99.90
66710;DHT22;53624;0.000;0.000;2023-07-31T03:13:36;15.20;99.90
66710;DHT22;53624;0.000;0.000;2023-07-31T03:16:04;15.10;99.90
66710;DHT22;53624;0.000;0.000;2023-07-31T03:18:31;14.90;99.90
66710;DHT22;53624;0.000;0.000;2023-07-31T03:20:59;14.90;99.90
66710;DHT22;53624;0.000;0.000;2023-07-31T03:23:27;15.20;99.90
66710;DHT22;53624;0.000;0.000;2023-07-31T03:25:55;15.40;99.90
66710;DHT22;53624;0.000;0.000;2023-07-31T03:28:24;15.40;99.90
66710;DHT22;53624;0.000;0.000;2023-07-31T03:30:53;15.60;99.90
66710;DHT22;53624;0.000;0.000;2023-07-31T03:33:20;15.50;99.90
66710;DHT22;53624;0.000;0.000;2023-07-31T03:35:48;15.20;99.90
66710;DHT22;53624;0.000;0.000;2023-07-31T03:38:15;15.30;99.90
66710;DHT22;53624;0.000;0.000;2023-07-31T03:40:43;15.50;99.90
66710;DHT22;53624;0.000;0.000;2023-07-31T03:43:10;15.70;99.90
66710;DHT22;53624;0.000;0.000;2023-07-31T03:45:40;15.80;99.90
66710;DHT22;53624;0.000;0.000;2023-07-31T03:48:08;15.90;99.90
66710;DHT22;53624;0.000;0.000;2023-07-31T03:50:35;16.00;99.90
66710;DHT22;53624;0.000;0.000;2023-07-31T03:53:03;16.00;99.90
66710;DHT22;53624;0.000;0.000;2023-07-31T03:55:30;16.00;99.90
66710;DHT22;53624;0.000;0.000;2023-07-31T03:57:58;16.00;99.90
66710;DHT22;53624;0.000;0.000;2023-07-31T04:00:26;16.00;99.90
66710;DHT22;53624;0.000;0.000;2023-07-31T04:02:55;15.90;99.90
66710;DHT22;53624;0.000;0.000;2023-07-31T04:05:22;16.00;99.90
66710;DHT22;53624;0.000;0.000;2023-07-31T04:07:50;15.90;99.90
66710;DHT22;53624;0.000;0.000;2023-07-31T04:10:17;15.90;99.90
66710;DHT22;53624;0.000;0.000;2023-07-31T04:12:45;15.90;99.90
66710;DHT22;53624;0.000;0.000;2023-07-31T04:15:12;15.70;99.90
66710;DHT22;53624;0.000;0.000;2023-07-31T04:17:39;15.80;99.90
66710;DHT22;53624;0.000;0.000;2023-07-31T04:20:09;15.90;99.90
66710;DHT22;53624;0.000;0.000;2023-07-31T04:22:37;15.90;99.90
66710;DHT22;53624;0.000;0.000;2023-07-31T04:25:05;15.80;99.90
66710;DHT22;53624;0.000;0.000;2023-07-31T04:27:32;15.90;99.90
66710;DHT22;53624;0.000;0.000;2023-07-31T04:30:00;15.90;99.90
66710;DHT22;53624;0.000;0.000;2023-07-31T04:32:27;15.90;99.90
66710;DHT22;53624;0.000;0.000;2023-07-31T04:34:55;16.00;99.90
66710;DHT22;53624;0.000;0.000;2023-07-31T04:37:24;16.00;99.90
66710;DHT22;53624;0.000;0.000;2023-07-31T04:39:52;16.10;99.90
66710;DHT22;53624;0.000;0.000;2023-07-31T04:42:19;16.00;99.90
66710;DHT22;53624;0.000;0.000;2023-07-31T04:44:47;16.00;99.90
66710;DHT22;53624;0.000;0.000;2023-07-31T04:47:14;15.70;99.90
66710;DHT22;53624;0.000;0.000;2023-07-31T04:49:42;15.40;99.90
66710;DHT22;53624;0.000;0.000;2023-07-31T04:52:09;15.40;99.90
66710;DHT22;53624;0.000;0.000;2023-07-31T04:54:38;15.70;99.90
66710;DHT22;53624;0.000;0.000;2023-07-31T04:57:06;16.00;99.90
66710;DHT22;53624;0.000;0.000;2023-07-31T04:59:33;16.10;99.90
66710;DHT22;53624;0.000;0.000;2023-07-31T05:02:01;16.00;99.90
66710;DHT22;53624;0.000;0.000;2023-07-31T05:04:28;16.20;99.90
66710;DHT22;53624;0.000;0.000;2023-07-31T05:06:56;16.20;99.90
66710;DHT22;53624;0.000;0.000;2023-07-31T05:09:23;16.20;99.90
66710;DHT22;53624;0.000;0.000;2023-07-31T05:11:52;16.30;99.90
66710;DHT22;53624;0.000;0.000;2023-07-31T05:14:20;16.30;99.90
66710;DHT22;53624;0.000;0.000;2023-07-31T05:16:47;16.20;99.90
66710;DHT22;53624;0.000;0.000;2023-07-31T05:19:15;16.30;99.90
66710;DHT22;53624;0.000;0.000;2023-07-31T05:21:42;16.30;99.90
66710;DHT22;53624;0.000;0.000;2023-07-31T05:24:10;16.30;99.90
66710;DHT22;53624;0.000;0.000;2023-07-31T05:26:37;16.40;99.90
66710;DHT22;53624;0.000;0.000;2023-07-31T05:29:06;16.40;99.90
66710;DHT22;53624;0.000;0.000;2023-07-31T05:31:34;16.40;99.90
66710;DHT22;53624;0.000;0.000;2023-07-31T05:34:04;16.40;99.90
66710;DHT22;53624;0.000;0.000;2023-07-31T05:36:32;16.50;99.90
66710;DHT22;53624;0.000;0.000;2023-07-31T05:38:59;16.60;99.90
66710;DHT22;53624;0.000;0.000;2023-07-31T05:41:32;16.60;99.90
66710;DHT22;53624;0.000;0.000;2023-07-31T05:43:59;16.70;99.90
66710;DHT22;53624;0.000;0.000;2023-07-31T05:50:02;16.50;99.90
66710;DHT22;53624;0.000;0.000;2023-07-31T05:52:30;16.50;99.90
66710;DHT22;53624;0.000;0.000;2023-07-31T05:54:57;16.40;99.90
66710;DHT22;53624;0.000;0.000;2023-07-31T05:57:25;16.60;99.90
66710;DHT22;53624;0.000;0.000;2023-07-31T05:59:52;16.80;99.90
66710;DHT22;53624;0.000;0.000;2023-07-31T06:02:20;16.80;99.90
66710;DHT22;53624;0.000;0.000;2023-07-31T06:04:48;17.00;99.90
66710;DHT22;53624;0.000;0.000;2023-07-31T06:07:16;17.20;99.90
66710;DHT22;53624;0.000;0.000;2023-07-31T06:09:45;17.30;99.90
66710;DHT22;53624;0.000;0.000;2023-07-31T06:12:12;17.40;99.90
66710;DHT22;53624;0.000;0.000;2023-07-31T06:14:40;17.60;99.90
66710;DHT22;53624;0.000;0.000;2023-07-31T06:17:07;17.90;99.90
66710;DHT22;53624;0.000;0.000;2023-07-31T06:19:35;18.10;99.90
66710;DHT22;53624;0.000;0.000;2023-07-31T06:22:02;18.30;99.90
66710;DHT22;53624;0.000;0.000;2023-07-31T06:24:31;18.60;99.90
66710;DHT22;53624;0.000;0.000;2023-07-31T06:26:59;18.80;99.90
66710;DHT22;53624;0.000;0.000;2023-07-31T06:29:28;19.10;99.90
66710;DHT22;53624;0.000;0.000;2023-07-31T06:31:56;19.40;99.90
66710;DHT22;53624;0.000;0.000;2023-07-31T06:34:24;19.70;99.90
66710;DHT22;53624;0.000;0.000;2023-07-31T06:36:51;19.90;99.90
66710;DHT22;53624;0.000;0.000;2023-07-31T06:39:19;20.10;99.90
66710;DHT22;53624;0.000;0.000;2023-07-31T06:41:49;20.10;99.90
66710;DHT22;53624;0.000;0.000;2023-07-31T06:44:17;19.90;99.90
66710;DHT22;53624;0.000;0.000;2023-07-31T06:46:45;20.10;99.90
66710;DHT22;53624;0.000;0.000;2023-07-31T06:49:12;20.50;99.90
66710;DHT22;53624;0.000;0.000;2023-07-31T06:51:41;20.60;99.90
66710;DHT22;53624;0.000;0.000;2023-07-31T06:54:10;20.90;99.90
66710;DHT22;53624;0.000;0.000;2023-07-31T06:56:37;21.00;99.40
66710;DHT22;53624;0.000;0.000;2023-07-31T06:59:06;21.20;99.20
66710;DHT22;53624;0.000;0.000;2023-07-31T07:01:34;21.30;98.50
66710;DHT22;53624;0.000;0.000;2023-07-31T07:04:03;21.60;98.10
66710;DHT22;53624;0.000;0.000;2023-07-31T07:06:31;21.90;97.90
66710;DHT22;53624;0.000;0.000;2023-07-31T07:08:59;22.30;97.50
66710;DHT22;53624;0.000;0.000;2023-07-31T07:11:27;22.60;96.60
66710;DHT22;53624;0.000;0.000;2023-07-31T07:13:55;23.00;96.40
66710;DHT22;53624;0.000;0.000;2023-07-31T07:16:24;23.20;94.90
66710;DHT22;53624;0.000;0.000;2023-07-31T07:18:51;23.70;93.40
66710;DHT22;53624;0.000;0.000;2023-07-31T07:21:19;23.90;91.90
66710;DHT22;53624;0.000;0.000;2023-07-31T07:23:46;24.30;90.50
66710;DHT22;53624;0.000;0.000;2023-07-31T07:26:14;24.60;89.30
66710;DHT22;53624;0.000;0.000;2023-07-31T07:28:41;24.90;87.90
66710;DHT22;53624;0.000;0.000;2023-07-31T07:31:09;25.30;86.40
66710;DHT22;53624;0.000;0.000;2023-07-31T07:33:38;25.50;86.70
66710;DHT22;53624;0.000;0.000;2023-07-31T07:36:05;25.80;84.30
66710;DHT22;53624;0.000;0.000;2023-07-31T07:38:35;26.00;88.20
66710;DHT22;53624;0.000;0.000;2023-07-31T07:41:05;25.90;87.30
66710;DHT22;53624;0.000;0.000;2023-07-31T07:43:32;26.10;86.60
66710;DHT22;53624;0.000;0.000;2023-07-31T07:46:00;26.70;85.30
66710;DHT22;53624;0.000;0.000;2023-07-31T07:48:28;26.70;85.10
66710;DHT22;53624;0.000;0.000;2023-07-31T07:50:57;26.80;85.30
66710;DHT22;53624;0.000;0.000;2023-07-31T07:53:25;27.30;84.80
66710;DHT22;53624;0.000;0.000;2023-07-31T07:55:52;27.70;84.50
66710;DHT22;53624;0.000;0.000;2023-07-31T07:58:20;28.10;82.00
66710;DHT22;53624;0.000;0.000;2023-07-31T08:00:50;28.00;80.30
66710;DHT22;53624;0.000;0.000;2023-07-31T08:03:18;28.40;80.20
66710;DHT22;53624;0.000;0.000;2023-07-31T08:05:46;28.10;78.60
66710;DHT22;53624;0.000;0.000;2023-07-31T08:08:15;28.40;75.60
66710;DHT22;53624;0.000;0.000;2023-07-31T08:10:43;27.30;77.80
66710;DHT22;53624;0.000;0.000;2023-07-31T08:13:11;26.80;77.90
66710;DHT22;53624;0.000;0.000;2023-07-31T08:15:40;26.20;78.30
66710;DHT22;53624;0.000;0.000;2023-07-31T08:18:08;25.80;77.50
66710;DHT22;53624;0.000;0.000;2023-07-31T08:20:37;25.40;78.80
66710;DHT22;53624;0.000;0.000;2023-07-31T08:23:05;25.50;81.40
66710;DHT22;53624;0.000;0.000;2023-07-31T08:25:35;25.10;86.10
66710;DHT22;53624;0.000;0.000;2023-07-31T08:28:03;24.60;88.20
66710;DHT22;53624;0.000;0.000;2023-07-31T08:30:31;23.90;90.10
66710;DHT22;53624;0.000;0.000;2023-07-31T08:32:59;24.30;90.40
66710;DHT22;53624;0.000;0.000;2023-07-31T08:35:26;25.00;90.00
66710;DHT22;53624;0.000;0.000;2023-07-31T08:37:55;25.50;86.60
66710;DHT22;53624;0.000;0.000;2023-07-31T08:40:25;25.30;87.70
66710;DHT22;53624;0.000;0.000;2023-07-31T08:42:58;25.20;87.40
66710;DHT22;53624;0.000;0.000;2023-07-31T08:45:28;25.20;87.20
66710;DHT22;53624;0.000;0.000;2023-07-31T08:47:57;25.10;86.40
66710;DHT22;53624;0.000;0.000;2023-07-31T08:50:24;24.50;87.00
66710;DHT22;53624;0.000;0.000;2023-07-31T08:52:52;24.90;86.30
66710;DHT22;53624;0.000;0.000;2023-07-31T08:55:20;25.20;87.40
66710;DHT22;53624;0.000;0.000;2023-07-31T08:57:50;24.90;86.70
66710;DHT22;53624;0.000;0.000;2023-07-31T09:00:19;24.80;86.20
66710;DHT22;53624;0.000;0.000;2023-07-31T09:02:52;24.80;85.70
66710;DHT22;53624;0.000;0.000;2023-07-31T09:05:21;24.80;84.60
66710;DHT22;53624;0.000;0.000;2023-07-31T09:07:50;25.50;84.70
66710;DHT22;53624;0.000;0.000;2023-07-31T09:10:18;26.00;83.50
66710;DHT22;53624;0.000;0.000;2023-07-31T09:12:45;25.70;82.20
66710;DHT22;53624;0.000;0.000;2023-07-31T09:15:13;25.90;81.80
66710;DHT22;53624;0.000;0.000;2023-07-31T09:17:42;25.90;81.50
66710;DHT22;53624;0.000;0.000;2023-07-31T09:20:14;26.20;87.30
66710;DHT22;53624;0.000;0.000;2023-07-31T09:22:42;26.30;81.20
66710;DHT22;53624;0.000;0.000;2023-07-31T09:25:16;26.30;83.20
66710;DHT22;53624;0.000;0.000;2023-07-31T09:27:48;26.10;82.30
66710;DHT22;53624;0.000;0.000;2023-07-31T09:30:15;25.30;78.70
66710;DHT22;53624;0.000;0.000;2023-07-31T09:32:44;25.50;83.20
66710;DHT22;53624;0.000;0.000;2023-07-31T09:35:19;25.90;82.20
66710;DHT22;53624;0.000;0.000;2023-07-31T09:37:51;26.20;81.70
66710;DHT22;53624;0.000;0.000;2023-07-31T09:40:25;26.30;80.00
66710;DHT22;53624;0.000;0.000;2023-07-31T09:42:53;26.50;86.00
66710;DHT22;53624;0.000;0.000;2023-07-31T09:45:21;26.50;81.00
66710;DHT22;53624;0.000;0.000;2023-07-31T09:47:50;26.20;80.10
66710;DHT22;53624;0.000;0.000;2023-07-31T09:50:19;26.30;82.40
66710;DHT22;53624;0.000;0.000;2023-07-31T09:52:46;26.30;80.40
66710;DHT22;53624;0.000;0.000;2023-07-31T09:55:14;26.50;77.90
66710;DHT22;53624;0.000;0.000;2023-07-31T09:57:42;26.20;79.00
66710;DHT22;53624;0.000;0.000;2023-07-31T10:00:10;26.40;81.10
66710;DHT22;53624;0.000;0.000;2023-07-31T10:02:37;26.60;81.40
66710;DHT22;53624;0.000;0.000;2023-07-31T10:05:07;26.70;81.00
66710;DHT22;53624;0.000;0.000;2023-07-31T10:07:36;26.50;77.80
66710;DHT22;53624;0.000;0.000;2023-07-31T10:10:05;26.40;80.50
66710;DHT22;53624;0.000;0.000;2023-07-31T10:12:34;26.50;78.80
66710;DHT22;53624;0.000;0.000;2023-07-31T10:15:02;26.10;79.10
66710;DHT22;53624;0.000;0.000;2023-07-31T10:17:30;25.90;79.30
66710;DHT22;53624;0.000;0.000;2023-07-31T10:19:58;25.80;78.90
66710;DHT22;53624;0.000;0.000;2023-07-31T10:22:28;26.00;82.10
66710;DHT22;53624;0.000;0.000;2023-07-31T10:24:57;26.60;80.90
66710;DHT22;53624;0.000;0.000;2023-07-31T10:27:25;26.70;80.40
66710;DHT22;53624;0.000;0.000;2023-07-31T10:29:54;26.80;76.60
66710;DHT22;53624;0.000;0.000;2023-07-31T10:32:22;26.70;76.80
66710;DHT22;53624;0.000;0.000;2023-07-31T10:34:49;26.60;79.20
66710;DHT22;53624;0.000;0.000;2023-07-31T10:37:21;26.70;79.30
66710;DHT22;53624;0.000;0.000;2023-07-31T10:40:00;26.60;78.00
66710;DHT22;53624;0.000;0.000;2023-07-31T10:42:29;26.00;78.50
66710;DHT22;53624;0.000;0.000;2023-07-31T10:44:57;26.30;78.80
66710;DHT22;53624;0.000;0.000;2023-07-31T10:47:25;26.00;77.50
66710;DHT22;53624;0.000;0.000;2023-07-31T10:49:53;26.00;78.90
66710;DHT22;53624;0.000;0.000;2023-07-31T10:52:37;26.40;78.80
66710;DHT22;53624;0.000;0.000;2023-07-31T10:58:00;26.70;78.10
66710;DHT22;53624;0.000;0.000;2023-07-31T11:00:32;26.80;77.20
66710;DHT22;53624;0.000;0.000;2023-07-31T11:03:00;26.80;78.60
66710;DHT22;53624;0.000;0.000;2023-07-31T11:05:46;26.80;76.20
66710;DHT22;53624;0.000;0.000;2023-07-31T11:08:14;26.90;77.10
66710;DHT22;53624;0.000;0.000;2023-07-31T11:10:42;26.90;78.20
66710;DHT22;53624;0.000;0.000;2023-07-31T11:13:12;27.10;79.80
66710;DHT22;53624;0.000;0.000;2023-07-31T11:15:39;27.10;77.50
66710;DHT22;53624;0.000;0.000;2023-07-31T11:18:07;27.20;77.60
66710;DHT22;53624;0.000;0.000;2023-07-31T11:20:36;27.30;77.50
66710;DHT22;53624;0.000;0.000;2023-07-31T11:23:05;27.40;79.50
66710;DHT22;53624;0.000;0.000;2023-07-31T11:25:33;27.50;75.30
66710;DHT22;53624;0.000;0.000;2023-07-31T11:28:04;27.30;75.20
66710;DHT22;53624;0.000;0.000;2023-07-31T11:30:33;26.50;73.40
66710;DHT22;53624;0.000;0.000;2023-07-31T11:33:01;26.30;73.10
66710;DHT22;53624;0.000;0.000;2023-07-31T11:35:31;26.40;74.40
66710;DHT22;53624;0.000;0.000;2023-07-31T11:37:58;26.70;74.30
66710;DHT22;53624;0.000;0.000;2023-07-31T11:40:26;26.50;73.70
66710;DHT22;53624;0.000;0.000;2023-07-31T11:42:56;26.60;74.70
66710;DHT22;53624;0.000;0.000;2023-07-31T11:45:26;26.90;74.50
66710;DHT22;53624;0.000;0.000;2023-07-31T11:47:56;27.20;74.40
66710;DHT22;53624;0.000;0.000;2023-07-31T11:50:24;27.50;78.10
66710;DHT22;53624;0.000;0.000;2023-07-31T11:52:53;27.30;73.60
66710;DHT22;53624;0.000;0.000;2023-07-31T11:55:23;27.20;72.60
66710;DHT22;53624;0.000;0.000;2023-07-31T11:57:51;27.20;74.70
66710;DHT22;53624;0.000;0.000;2023-07-31T12:00:19;27.40;73.10
66710;DHT22;53624;0.000;0.000;2023-07-31T12:02:46;27.50;72.10
66710;DHT22;53624;0.000;0.000;2023-07-31T12:05:15;27.60;71.70
66710;DHT22;53624;0.000;0.000;2023-07-31T12:07:46;27.60;69.20
66710;DHT22;53624;0.000;0.000;2023-07-31T12:10:24;27.50;70.50
66710;DHT22;53624;0.000;0.000;2023-07-31T12:13:01;27.70;73.20
66710;DHT22;53624;0.000;0.000;2023-07-31T12:15:29;27.80;73.50
66710;DHT22;53624;0.000;0.000;2023-07-31T12:17:58;27.50;71.60
66710;DHT22;53624;0.000;0.000;2023-07-31T12:20:27;27.60;73.70
66710;DHT22;53624;0.000;0.000;2023-07-31T12:22:55;27.60;74.40
66710;DHT22;53624;0.000;0.000;2023-07-31T12:25:23;27.60;74.00
66710;DHT22;53624;0.000;0.000;2023-07-31T12:27:56;27.50;72.50
66710;DHT22;53624;0.000;0.000;2023-07-31T12:30:27;27.40;71.90
66710;DHT22;53624;0.000;0.000;2023-07-31T12:32:55;27.50;73.70
66710;DHT22;53624;0.000;0.000;2023-07-31T12:35:22;27.40;74.20
66710;DHT22;53624;0.000;0.000;2023-07-31T12:37:51;27.30;73.10
66710;DHT22;53624;0.000;0.000;2023-07-31T12:40:19;27.50;73.50
66710;DHT22;53624;0.000;0.000;2023-07-31T12:42:47;27.70;72.80
66710;DHT22;53624;0.000;0.000;2023-07-31T12:45:17;27.70;75.40
66710;DHT22;53624;0.000;0.000;2023-07-31T12:47:44;28.00;73.20
66710;DHT22;53624;0.000;0.000;2023-07-31T12:50:12;28.10;72.70
66710;DHT22;53624;0.000;0.000;2023-07-31T12:52:39;28.00;69.70
66710;DHT22;53624;0.000;0.000;2023-07-31T12:55:08;27.80;71.20
66710;DHT22;53624;0.000;0.000;2023-07-31T12:57:36;27.90;71.60
66710;DHT22;53624;0.000;0.000;2023-07-31T13:00:05;27.90;72.00
66710;DHT22;53624;0.000;0.000;2023-07-31T13:02:32;27.80;72.00
66710;DHT22;53624;0.000;0.000;2023-07-31T13:05:00;27.70;69.80
66710;DHT22;53624;0.000;0.000;2023-07-31T13:07:28;27.70;70.50
66710;DHT22;53624;0.000;0.000;2023-07-31T13:09:55;27.80;68.80
66710;DHT22;53624;0.000;0.000;2023-07-31T13:12:24;27.80;71.80
66710;DHT22;53624;0.000;0.000;2023-07-31T13:14:52;27.80;67.20
66710;DHT22;53624;0.000;0.000;2023-07-31T13:17:20;27.80;69.50
66710;DHT22;53624;0.000;0.000;2023-07-31T13:19:47;28.10;68.80
66710;DHT22;53624;0.000;0.000;2023-07-31T13:22:15;28.00;67.90
66710;DHT22;53624;0.000;0.000;2023-07-31T13:24:42;28.10;70.20
66710;DHT22;53624;0.000;0.000;2023-07-31T13:27:10;28.20;68.50
66710;DHT22;53624;0.000;0.000;2023-07-31T13:29:39;28.40;70.50
66710;DHT22;53624;0.000;0.000;2023-07-31T13:32:07;28.20;66.60
66710;DHT22;53624;0.000;0.000;2023-07-31T13:34:34;28.20;69.90
66710;DHT22;53624;0.000;0.000;2023-07-31T13:37:02;28.20;68.50
66710;DHT22;53624;0.000;0.000;2023-07-31T13:39:32;28.20;67.70
66710;DHT22;53624;0.000;0.000;2023-07-31T13:41:59;28.20;68.70
66710;DHT22;53624;0.000;0.000;2023-07-31T13:44:27;28.10;67.50
66710;DHT22;53624;0.000;0.000;2023-07-31T13:46:56;28.20;68.10
66710;DHT22;53624;0.000;0.000;2023-07-31T13:49:23;28.20;69.50
66710;DHT22;53624;0.000;0.000;2023-07-31T13:51:51;28.20;69.00
66710;DHT22;53624;0.000;0.000;2023-07-31T13:54:18;28.20;68.40
66710;DHT22;53624;0.000;0.000;2023-07-31T13:56:46;28.30;68.80
66710;DHT22;53624;0.000;0.000;2023-07-31T13:59:13;28.40;69.10
66710;DHT22;53624;0.000;0.000;2023-07-31T14:01:42;28.50;69.10
66710;DHT22;53624;0.000;0.000;2023-07-31T14:04:11;28.60;69.00
66710;DHT22;53624;0.000;0.000;2023-07-31T14:06:39;28.70;70.40
66710;DHT22;53624;0.000;0.000;2023-07-31T14:09:06;28.70;70.80
66710;DHT22;53624;0.000;0.000;2023-07-31T14:11:34;28.70;69.40
66710;DHT22;53624;0.000;0.000;2023-07-31T14:14:01;28.60;67.60
66710;DHT22;53624;0.000;0.000;2023-07-31T14:16:29;28.50;68.00
66710;DHT22;53624;0.000;0.000;2023-07-31T14:18:56;28.60;68.30
66710;DHT22;53624;0.000;0.000;2023-07-31T14:21:26;28.60;70.10
66710;DHT22;53624;0.000;0.000;2023-07-31T14:23:53;28.50;68.90
66710;DHT22;53624;0.000;0.000;2023-07-31T14:26:21;28.20;69.50
66710;DHT22;53624;0.000;0.000;2023-07-31T14:28:48;28.30;69.20
66710;DHT22;53624;0.000;0.000;2023-07-31T14:31:16;28.40;69.00
66710;DHT22;53624;0.000;0.000;2023-07-31T14:33:43;28.40;68.50
66710;DHT22;53624;0.000;0.000;2023-07-31T14:36:11;28.40;68.00
66710;DHT22;53624;0.000;0.000;2023-07-31T14:38:40;28.50;67.70
66710;DHT22;53624;0.000;0.000;2023-07-31T14:41:07;28.50;68.80
66710;DHT22;53624;0.000;0.000;2023-07-31T14:43:34;28.30;68.00
66710;DHT22;53624;0.000;0.000;2023-07-31T14:46:02;28.20;68.50
66710;DHT22;53624;0.000;0.000;2023-07-31T14:48:29;28.40;67.60
66710;DHT22;53624;0.000;0.000;2023-07-31T14:50:57;28.50;69.60
66710;DHT22;53624;0.000;0.000;2023-07-31T14:53:24;28.70;69.10
66710;DHT22;53624;0.000;0.000;2023-07-31T14:55:53;28.60;69.30
66710;DHT22;53624;0.000;0.000;2023-07-31T14:58:21;28.30;68.10
66710;DHT22;53624;0.000;0.000;2023-07-31T15:00:50;28.20;66.90
66710;DHT22;53624;0.000;0.000;2023-07-31T15:03:17;28.30;66.70
66710;DHT22;53624;0.000;0.000;2023-07-31T15:05:45;28.10;68.60
66710;DHT22;53624;0.000;0.000;2023-07-31T15:08:12;28.00;67.60
66710;DHT22;53624;0.000;0.000;2023-07-31T15:10:39;28.00;67.20
66710;DHT22;53624;0.000;0.000;2023-07-31T15:13:08;28.00;66.80
66710;DHT22;53624;0.000;0.000;2023-07-31T15:15:36;28.00;69.10
66710;DHT22;53624;0.000;0.000;2023-07-31T15:18:03;28.00;68.30
66710;DHT22;53624;0.000;0.000;2023-07-31T15:20:31;28.20;69.70
66710;DHT22;53624;0.000;0.000;2023-07-31T15:22:58;28.30;68.20
66710;DHT22;53624;0.000;0.000;2023-07-31T15:25:26;28.40;69.60
66710;DHT22;53624;0.000;0.000;2023-07-31T15:27:53;28.60;70.30
66710;DHT22;53624;0.000;0.000;2023-07-31T15:30:22;28.60;71.10
66710;DHT22;53624;0.000;0.000;2023-07-31T15:32:51;28.50;69.10
66710;DHT22;53624;0.000;0.000;2023-07-31T15:35:19;28.40;70.50
66710;DHT22;53624;0.000;0.000;2023-07-31T15:37:47;28.30;70.10
66710;DHT22;53624;0.000;0.000;2023-07-31T15:40:14;28.40;70.30
66710;DHT22;53624;0.000;0.000;2023-07-31T15:42:41;28.50;70.10
66710;DHT22;53624;0.000;0.000;2023-07-31T15:45:09;28.30;70.30
66710;DHT22;53624;0.000;0.000;2023-07-31T15:47:38;28.20;69.90
66710;DHT22;53624;0.000;0.000;2023-07-31T15:50:06;28.30;70.00
66710;DHT22;53624;0.000;0.000;2023-07-31T15:52:34;28.30;71.10
66710;DHT22;53624;0.000;0.000;2023-07-31T15:55:01;28.40;70.40
66710;DHT22;53624;0.000;0.000;2023-07-31T15:57:29;28.40;70.30